Time;durP1;ratioP1;P1;durP2;ratioP2;P2;SDS_P1;SDS_P2;PMS_P1;PMS_P2;Temp;Humidity;BMP_temperature;BMP_pressure;BME280_temperature;BME280_humidity;BME280_pressure;Samples;Min_cycle;Max_cycle;Signal;HPM_P1;HPM_P2
2021/11/09 16:39:48;;;;;;;10.15;3.63;;;;;;;5.75;100.00;102510.03;7878528;27;4826199;-56
2021/11/09 16:44:51;;;;;;;11.02;4.35;;;;;;;5.97;100.00;102514.16;10520678;28;20411;-62
2021/11/09 17:00:55;;;;;;;12.17;3.57;;;;;;;5.63;100.00;102511.88;10539430;28;20076;-59
2021/11/09 18:20:41;;;;;;;28.10;8.77;;;;;;;5.07;100.00;102566.00;10587051;28;20047;-58
2021/11/09 18:25:44;;;;;;;25.50;11.15;;;;;;;5.07;100.00;102566.84;10586761;28;20054;-60
2021/11/09 18:30:47;;;;;;;22.40;8.95;;;;;;;5.04;100.00;102566.84;10586766;28;20048;-58
2021/11/09 18:35:52;;;;;;;21.02;7.82;;;;;;;4.98;100.00;102556.53;10586612;28;20046;-59
2021/11/09 18:40:54;;;;;;;11.40;5.65;;;;;;;5.16;100.00;102560.72;10585992;28;20055;-59
2021/11/09 18:45:57;;;;;;;17.33;6.88;;;;;;;5.01;100.00;102559.97;10586042;28;20506;-59
2021/11/09 18:50:59;;;;;;;16.15;6.40;;;;;;;4.81;100.00;102549.69;10585798;28;20403;-59
2021/11/09 18:56:02;;;;;;;16.40;6.13;;;;;;;4.55;100.00;102549.78;10585604;28;20043;-59
2021/11/09 19:01:04;;;;;;;17.20;6.07;;;;;;;4.57;100.00;102537.72;10585556;28;20044;-59
2021/11/09 19:06:07;;;;;;;19.48;6.60;;;;;;;4.76;100.00;102543.66;10585313;28;20069;-59
2021/11/09 19:11:09;;;;;;;14.10;5.47;;;;;;;4.61;100.00;102536.81;10585207;28;20043;-59
2021/11/09 19:16:12;;;;;;;17.85;5.50;;;;;;;4.50;100.00;102527.34;10567153;28;20043;-59
2021/11/09 19:21:14;;;;;;;15.15;5.63;;;;;;;4.54;100.00;102526.47;10584456;28;20548;-58
2021/11/09 19:26:17;;;;;;;12.80;5.90;;;;;;;4.63;100.00;102527.28;10585051;28;20057;-56
2021/11/09 19:31:19;;;;;;;14.15;4.93;;;;;;;4.54;100.00;102519.56;10584256;28;20050;-58
2021/11/09 19:36:22;;;;;;;14.82;6.80;;;;;;;4.59;100.00;102514.31;10583055;28;20073;-58
2021/11/09 19:41:33;;;;;;;17.38;4.53;;;;;;;4.38;100.00;102507.50;10583772;28;20079;-58
2021/11/09 19:46:43;;;;;;;17.45;5.32;;;;;;;4.21;100.00;102511.03;10583989;28;20403;-59
2021/11/09 19:51:46;;;;;;;13.60;5.82;;;;;;;4.51;100.00;102509.19;10583093;28;20446;-59
2021/11/09 19:56:49;;;;;;;21.58;5.93;;;;;;;4.13;100.00;102492.03;10583955;28;20054;-59
2021/11/09 20:01:51;;;;;;;12.38;4.70;;;;;;;4.25;100.00;102498.91;10582836;28;20487;-59
2021/11/09 20:06:54;;;;;;;20.45;5.85;;;;;;;4.20;100.00;102488.59;10583021;28;20075;-60
2021/11/09 20:11:57;;;;;;;10.93;5.22;;;;;;;4.44;100.00;102486.75;10582969;28;20047;-59
2021/11/09 20:16:59;;;;;;;14.98;5.20;;;;;;;4.08;100.00;102480.81;10582742;28;20069;-57
2021/11/09 20:22:02;;;;;;;14.18;4.57;;;;;;;4.04;100.00;102489.50;10582637;28;20144;-59
2021/11/09 20:27:08;;;;;;;14.20;5.30;;;;;;;3.89;100.00;102486.06;10582599;28;20066;-59
2021/11/09 20:32:11;;;;;;;13.68;5.53;;;;;;;3.77;100.00;102480.06;10581919;28;20411;-58
2021/11/09 20:37:13;;;;;;;12.98;5.20;;;;;;;3.74;100.00;102488.69;10581881;28;20060;-58
2021/11/09 20:42:16;;;;;;;15.55;6.80;;;;;;;3.64;100.00;102486.97;10582100;28;20054;-59
2021/11/09 20:47:19;;;;;;;17.38;5.88;;;;;;;4.12;100.00;102489.44;10563814;28;20048;-58
2021/11/09 20:52:21;;;;;;;16.67;5.60;;;;;;;3.81;100.00;102498.16;10581616;28;20043;-58
2021/11/09 20:57:24;;;;;;;16.90;5.97;;;;;;;3.68;100.00;102497.34;10581450;28;20503;-58
2021/11/09 21:02:27;;;;;;;11.98;4.32;;;;;;;3.66;100.00;102491.28;10581451;28;20513;-57
2021/11/09 21:07:29;;;;;;;26.17;5.03;;;;;;;3.61;100.00;102492.16;10581326;28;20495;-56
2021/11/09 21:12:42;;;;;;;12.85;4.55;;;;;;;3.38;100.00;102495.66;10581434;28;20039;-59
2021/11/09 21:23:05;;;;;;;10.65;4.55;;;;;;;3.32;100.00;102498.22;10581304;28;20051;-58
2021/11/09 21:28:08;;;;;;;17.02;5.07;;;;;;;3.39;100.00;102502.53;10581187;28;20479;-57
2021/11/09 21:38:33;;;;;;;16.25;6.13;;;;;;;3.92;100.00;102505.94;10580801;28;20399;-60
2021/11/09 21:43:36;;;;;;;19.58;5.40;;;;;;;3.90;100.00;102510.25;10580871;28;20043;-58
2021/11/09 21:48:39;;;;;;;12.32;4.95;;;;;;;3.56;100.00;102504.25;10580801;28;20054;-60
2021/11/09 21:53:41;;;;;;;25.83;8.18;;;;;;;3.86;100.00;102504.19;10580699;28;20043;-58
2021/11/09 21:58:43;;;;;;;22.98;5.47;;;;;;;4.07;100.00;102502.44;10583491;28;20055;-55
2021/11/09 22:03:46;;;;;;;21.67;5.70;;;;;;;4.07;100.00;102500.72;10587686;28;20047;-58
2021/11/09 22:08:48;;;;;;;22.55;4.88;;;;;;;4.10;100.00;102499.81;10587743;28;20052;-57
2021/11/09 22:13:51;;;;;;;18.27;5.32;;;;;;;3.57;100.00;102504.25;10587406;28;20044;-58
2021/11/09 22:18:53;;;;;;;19.58;5.55;;;;;;;3.52;100.00;102493.91;10569451;28;20048;-60
2021/11/09 22:24:01;;;;;;;13.00;6.32;;;;;;;3.66;100.00;102509.41;10587640;28;20071;-58
2021/11/09 22:29:04;;;;;;;17.67;6.00;;;;;;;3.52;100.00;102511.16;10586493;28;20047;-57
2021/11/09 22:34:06;;;;;;;16.75;5.60;;;;;;;3.49;100.00;102499.06;10586363;28;20054;-60
2021/11/09 22:39:09;;;;;;;16.17;5.65;;;;;;;3.75;100.00;102505.09;10586919;28;20055;-58
2021/11/09 22:44:11;;;;;;;15.43;5.78;;;;;;;3.75;100.00;102503.38;10586614;28;20075;-58
2021/11/09 22:49:14;;;;;;;20.75;6.90;;;;;;;3.52;100.00;102504.25;10585804;28;20059;-56
2021/11/09 22:54:16;;;;;;;18.00;6.80;;;;;;;3.75;100.00;102505.09;10585774;28;20518;-57
2021/11/09 22:59:18;;;;;;;15.48;7.65;;;;;;;3.45;100.00;102512.03;10585776;28;20043;-60
2021/11/09 23:04:21;;;;;;;23.67;8.27;;;;;;;3.76;100.00;102506.81;10585330;28;20417;-59
2021/11/09 23:09:23;;;;;;;17.27;7.97;;;;;;;3.72;100.00;102495.59;10585820;28;20055;-58
2021/11/09 23:14:25;;;;;;;27.38;9.88;;;;;;;3.98;100.00;102498.13;10584911;28;20043;-61
2021/11/09 23:19:28;;;;;;;20.15;10.13;;;;;;;3.88;100.00;102505.09;10584860;28;20043;-58
2021/11/09 23:24:30;;;;;;;24.73;9.63;;;;;;;3.78;100.00;102505.09;10584374;28;20043;-59
2021/11/09 23:29:33;;;;;;;19.48;9.93;;;;;;;3.90;100.00;102492.09;10584465;28;20047;-58
2021/11/09 23:34:36;;;;;;;26.23;10.38;;;;;;;3.85;100.00;102486.94;10584147;28;20399;-56
2021/11/09 23:39:38;;;;;;;17.10;8.65;;;;;;;3.97;100.00;102483.47;10583260;28;20043;-56
2021/11/09 23:44:41;;;;;;;24.95;12.23;;;;;;;3.79;100.00;102486.94;10566040;28;20039;-56
2021/11/09 23:49:45;;;;;;;21.35;10.00;;;;;;;4.09;100.00;102478.22;10583638;28;20062;-56
2021/11/09 23:54:48;;;;;;;22.85;11.18;;;;;;;3.75;100.00;102484.38;10583337;28;20380;-59
2021/11/09 23:59:50;;;;;;;20.35;11.07;;;;;;;3.89;100.00;102483.47;10583170;28;20044;-59
